createdAt,value
2023-06-10T00:02:46.624Z,-63
2023-06-10T00:07:49.119Z,-63
2023-06-10T00:12:50.393Z,-63
2023-06-10T00:17:53.899Z,-63
2023-06-10T00:22:55.196Z,-63
2023-06-10T00:27:56.620Z,-63
2023-06-10T00:32:57.943Z,-63
2023-06-10T00:37:59.125Z,-63
2023-06-10T00:43:00.589Z,-63
2023-06-10T00:48:01.820Z,-63
2023-06-10T00:53:03.816Z,-63
2023-06-10T00:58:05.110Z,-63
2023-06-10T01:03:09.505Z,-63
2023-06-10T01:08:11.955Z,-63
2023-06-10T01:13:13.193Z,-63
2023-06-10T01:18:16.365Z,-63
2023-06-10T01:23:17.740Z,-63
2023-06-10T01:28:18.963Z,-64
2023-06-10T01:33:20.390Z,-64
2023-06-10T01:38:22.356Z,-64
2023-06-10T01:43:23.574Z,-64
2023-06-10T01:48:24.769Z,-65
2023-06-10T01:53:26.060Z,-63
2023-06-10T01:58:27.520Z,-63
2023-06-10T02:03:28.904Z,-63
2023-06-10T02:08:30.194Z,-64
2023-06-10T02:13:31.410Z,-63
2023-06-10T02:18:32.613Z,-64
2023-06-10T02:23:33.845Z,-63
2023-06-10T02:28:35.024Z,-63
2023-06-10T02:33:36.215Z,-63
2023-06-10T02:38:37.439Z,-64
2023-06-10T02:43:38.616Z,-64
2023-06-10T02:48:39.814Z,-64
2023-06-10T02:53:41.058Z,-64
2023-06-10T02:58:42.722Z,-63
2023-06-10T03:03:44.207Z,-63
2023-06-10T03:08:46.723Z,-63
2023-06-10T03:13:47.909Z,-63
2023-06-10T03:18:49.452Z,-63
2023-06-10T03:23:50.725Z,-63
2023-06-10T03:28:51.960Z,-63
2023-06-10T03:33:53.198Z,-63
2023-06-10T03:38:54.897Z,-63
2023-06-10T03:43:56.416Z,-63
2023-06-10T03:48:57.597Z,-63
2023-06-10T03:53:58.791Z,-63
2023-06-10T03:59:00.142Z,-63
2023-06-10T04:04:02.232Z,-63
2023-06-10T04:09:04.171Z,-63
2023-06-10T04:14:05.382Z,-63
2023-06-10T04:19:06.704Z,-63
2023-06-10T04:24:08.197Z,-63
2023-06-10T04:29:09.395Z,-63
2023-06-10T04:34:10.549Z,-63
2023-06-10T04:39:11.769Z,-63
2023-06-10T04:44:13.084Z,-63
2023-06-10T04:49:15.270Z,-63
2023-06-10T04:54:16.816Z,-63
2023-06-10T04:59:17.990Z,-63
2023-06-10T05:04:19.187Z,-63
2023-06-10T05:09:20.525Z,-63
2023-06-10T05:14:21.977Z,-63
2023-06-10T05:19:23.587Z,-63
2023-06-10T05:24:24.787Z,-63
2023-06-10T05:29:26.709Z,-64
2023-06-10T05:34:27.878Z,-63
2023-06-10T05:39:29.075Z,-63
2023-06-10T05:44:30.306Z,-63
2023-06-10T05:49:31.481Z,-63
2023-06-10T05:54:32.682Z,-66
2023-06-10T05:59:33.925Z,-63
2023-06-10T06:04:35.164Z,-63
2023-06-10T06:09:36.377Z,-63
2023-06-10T06:14:37.538Z,-63
2023-06-10T06:19:38.683Z,-63
2023-06-10T06:24:40.098Z,-63
2023-06-10T06:29:41.405Z,-63
2023-06-10T06:34:43.101Z,-64
2023-06-10T06:39:44.329Z,-63
2023-06-10T06:44:45.583Z,-63
2023-06-10T06:49:46.783Z,-63
2023-06-10T06:54:48.017Z,-63
2023-06-10T06:59:49.184Z,-64
2023-06-10T07:04:50.829Z,-63
2023-06-10T07:09:52.189Z,-65
2023-06-10T07:14:53.554Z,-63
2023-06-10T07:19:58.259Z,-63
2023-06-10T07:24:59.449Z,-64
2023-06-10T07:30:02.002Z,-64
2023-06-10T07:35:03.550Z,-67
2023-06-10T07:40:04.725Z,-66
2023-06-10T07:45:05.903Z,-69
2023-06-10T07:50:07.076Z,-64
2023-06-10T07:55:08.504Z,-64
2023-06-10T08:00:09.958Z,-65
2023-06-10T08:05:11.357Z,-64
2023-06-10T08:10:12.864Z,-64
2023-06-10T08:15:14.038Z,-64
2023-06-10T08:20:15.454Z,-64
2023-06-10T08:25:16.663Z,-64
2023-06-10T08:30:19.144Z,-63
2023-06-10T08:35:20.345Z,-64
2023-06-10T08:40:22.080Z,-64
2023-06-10T08:45:23.267Z,-65
2023-06-10T08:50:24.445Z,-65
2023-06-10T08:55:28.486Z,-63
2023-06-10T09:00:31.775Z,-63
2023-06-10T09:05:32.952Z,-65
2023-06-10T09:10:34.137Z,-65
2023-06-10T09:15:35.484Z,-64
2023-06-10T09:20:36.850Z,-65
2023-06-10T09:25:38.314Z,-65
2023-06-10T09:30:39.605Z,-64
2023-06-10T09:35:40.863Z,-65
2023-06-10T09:40:42.072Z,-64
2023-06-10T09:45:44.323Z,-63
2023-06-10T09:50:45.731Z,-64
2023-06-10T09:55:46.942Z,-65
2023-06-10T10:00:48.157Z,-66
2023-06-10T10:05:49.471Z,-65
2023-06-10T10:10:50.837Z,-64
2023-06-10T10:15:52.040Z,-64
2023-06-10T10:20:53.390Z,-64
2023-06-10T10:25:54.829Z,-64
2023-06-10T10:30:56.090Z,-64
2023-06-10T10:35:57.254Z,-64
2023-06-10T10:41:00.754Z,-65
2023-06-10T10:46:02.114Z,-64
2023-06-10T10:51:03.385Z,-64
2023-06-10T10:56:04.596Z,-64
2023-06-10T11:01:05.965Z,-64
2023-06-10T11:06:09.641Z,-64
2023-06-10T11:11:10.839Z,-64
2023-06-10T11:16:12.761Z,-65
2023-06-10T11:21:14.035Z,-64
2023-06-10T11:26:15.351Z,-64
2023-06-10T11:31:16.556Z,-64
2023-06-10T11:36:17.717Z,-64
2023-06-10T11:41:18.926Z,-64
2023-06-10T11:46:20.100Z,-64
2023-06-10T11:51:21.738Z,-64
2023-06-10T11:56:23.050Z,-64
2023-06-10T12:01:29.015Z,-65
2023-06-10T12:06:30.503Z,-65
2023-06-10T12:11:31.680Z,-65
2023-06-10T12:16:32.897Z,-67
2023-06-10T12:21:34.100Z,-65
2023-06-10T12:26:35.273Z,-64
2023-06-10T12:31:36.482Z,-66
2023-06-10T12:36:37.651Z,-65
2023-06-10T12:41:39.248Z,-65
2023-06-10T12:46:40.469Z,-65
2023-06-10T12:51:41.657Z,-65
2023-06-10T12:56:42.845Z,-65
2023-06-10T13:01:44.104Z,-65
2023-06-10T13:06:45.297Z,-65
2023-06-10T13:11:46.496Z,-65
2023-06-10T13:16:47.784Z,-65
2023-06-10T13:21:48.945Z,-66
2023-06-10T13:26:50.177Z,-66
2023-06-10T13:31:51.406Z,-66
2023-06-10T13:36:52.601Z,-66
2023-06-10T13:41:53.816Z,-66
2023-06-10T13:46:54.990Z,-65
2023-06-10T13:51:56.227Z,-66
2023-06-10T13:56:57.523Z,-68
2023-06-10T14:01:59.104Z,-69
2023-06-10T14:07:00.531Z,-66
2023-06-10T14:12:01.820Z,-66
2023-06-10T14:17:04.220Z,-66
2023-06-10T14:22:08.133Z,-67
2023-06-10T14:27:09.563Z,-65
2023-06-10T14:32:10.847Z,-64
2023-06-10T14:37:13.950Z,-65
2023-06-10T14:42:15.353Z,-65
2023-06-10T14:47:16.508Z,-64
2023-06-10T14:52:17.684Z,-64
2023-06-10T14:57:18.866Z,-65
2023-06-10T15:02:20.056Z,-65
2023-06-10T15:07:21.218Z,-63
2023-06-10T15:12:22.413Z,-64
2023-06-10T15:17:23.589Z,-63
2023-06-10T15:22:24.804Z,-63
2023-06-10T15:27:25.985Z,-64
2023-06-10T15:32:27.169Z,-63
2023-06-10T15:37:28.340Z,-63
2023-06-10T15:42:29.561Z,-63
2023-06-10T15:47:30.836Z,-63
2023-06-10T15:52:32.073Z,-63
2023-06-10T15:57:33.536Z,-67
2023-06-10T16:02:37.254Z,-65
2023-06-10T16:07:39.001Z,-63
2023-06-10T16:12:40.345Z,-64
2023-06-10T16:17:41.572Z,-64
2023-06-10T16:22:42.778Z,-65
2023-06-10T16:27:43.925Z,-64
2023-06-10T16:32:45.119Z,-64
2023-06-10T16:37:46.317Z,-64
2023-06-10T16:42:47.495Z,-63
2023-06-10T16:47:48.733Z,-64
2023-06-10T16:52:49.984Z,-64
2023-06-10T16:57:51.151Z,-64
2023-06-10T17:02:52.361Z,-64
2023-06-10T17:07:53.622Z,-63
2023-06-10T17:12:54.776Z,-64
2023-06-10T17:17:56.097Z,-64
2023-06-10T17:22:57.350Z,-64
2023-06-10T17:27:58.517Z,-63
2023-06-10T17:32:59.784Z,-64
2023-06-10T17:38:01.169Z,-64
2023-06-10T17:43:02.343Z,-63
2023-06-10T17:48:03.585Z,-64
2023-06-10T17:53:04.889Z,-63
2023-06-10T17:58:06.065Z,-64
2023-06-10T18:03:07.381Z,-63
2023-06-10T18:08:08.631Z,-64
2023-06-10T18:13:10.951Z,-63
2023-06-10T18:18:12.311Z,-63
2023-06-10T18:23:13.595Z,-64
2023-06-10T18:28:14.771Z,-63
2023-06-10T18:33:15.963Z,-66
2023-06-10T18:38:17.191Z,-63
2023-06-10T18:43:18.800Z,-64
2023-06-10T18:48:20.082Z,-64
2023-06-10T18:53:21.315Z,-64
2023-06-10T18:58:22.471Z,-63
2023-06-10T19:03:23.921Z,-63
2023-06-10T19:08:25.245Z,-63
2023-06-10T19:13:28.231Z,-63
2023-06-10T19:18:29.406Z,-64
2023-06-10T19:23:30.565Z,-63
2023-06-10T19:28:31.911Z,-63
2023-06-10T19:33:33.084Z,-63
2023-06-10T19:38:34.294Z,-63
2023-06-10T19:43:35.762Z,-62
2023-06-10T19:48:36.996Z,-63
2023-06-10T19:53:38.288Z,-63
2023-06-10T19:58:39.439Z,-63
2023-06-10T20:03:40.667Z,-63
2023-06-10T20:08:41.941Z,-62
2023-06-10T20:13:43.137Z,-62
2023-06-10T20:18:44.396Z,-62
2023-06-10T20:23:45.613Z,-63
2023-06-10T20:28:46.830Z,-64
2023-06-10T20:33:47.983Z,-63
2023-06-10T20:38:49.177Z,-63
2023-06-10T20:43:50.413Z,-63
2023-06-10T20:48:51.568Z,-63
2023-06-10T20:53:52.858Z,-63
2023-06-10T20:58:54.067Z,-63
2023-06-10T21:03:55.284Z,-63
2023-06-10T21:08:57.675Z,-63
2023-06-10T21:13:58.865Z,-63
2023-06-10T21:19:00.024Z,-64
2023-06-10T21:24:01.312Z,-63
2023-06-10T21:29:02.567Z,-63
2023-06-10T21:34:03.810Z,-66
2023-06-10T21:39:05.519Z,-63
2023-06-10T21:44:07.638Z,-63
2023-06-10T21:49:08.869Z,-63
2023-06-10T21:54:10.147Z,-63
2023-06-10T21:59:11.325Z,-63
2023-06-10T22:04:12.609Z,-63
2023-06-10T22:09:13.946Z,-63
2023-06-10T22:14:15.101Z,-63
2023-06-10T22:19:16.319Z,-62
2023-06-10T22:24:17.646Z,-63
2023-06-10T22:29:19.863Z,-63
2023-06-10T22:34:21.367Z,-63
2023-06-10T22:39:22.606Z,-63
2023-06-10T22:44:23.783Z,-63
2023-06-10T22:49:24.952Z,-62
2023-06-10T22:54:29.294Z,-63
2023-06-10T22:59:30.561Z,-63
2023-06-10T23:04:31.853Z,-63
2023-06-10T23:09:33.061Z,-63
2023-06-10T23:14:34.283Z,-63
2023-06-10T23:19:41.356Z,-63
2023-06-10T23:24:45.539Z,-63
2023-06-10T23:34:53.274Z,-63
2023-06-10T23:39:55.081Z,-63
2023-06-10T23:44:56.328Z,-62
2023-06-10T23:49:57.537Z,-63
2023-06-10T23:54:59.455Z,-63
